sensor_id;sensor_type;location;lat;lon;timestamp;noise_LAeq;noise_LA_min;noise_LA_max;noise_LA01;noise_LA95
66747;Laerm;53658;50.742;10.864;2023-08-31T00:00:49;39.14;35.36;47.12;;
66747;Laerm;53658;50.742;10.864;2023-08-31T00:03:17;39.08;35.66;51.91;;
66747;Laerm;53658;50.742;10.864;2023-08-31T00:05:44;39.09;35.04;51.91;;
66747;Laerm;53658;50.742;10.864;2023-08-31T00:08:10;39.01;35.04;46.57;;
66747;Laerm;53658;50.742;10.864;2023-08-31T00:10:39;39.05;35.36;44.19;;
66747;Laerm;53658;50.742;10.864;2023-08-31T00:13:06;39.01;35.36;45.60;;
66747;Laerm;53658;50.742;10.864;2023-08-31T00:15:34;39.08;35.04;49.98;;
66747;Laerm;53658;50.742;10.864;2023-08-31T00:18:02;38.94;35.04;43.68;;
66747;Laerm;53658;50.742;10.864;2023-08-31T00:20:32;50.82;34.69;86.82;;
66747;Laerm;53658;50.742;10.864;2023-08-31T00:22:59;39.02;34.69;47.30;;
66747;Laerm;53658;50.742;10.864;2023-08-31T00:25:26;38.98;35.04;42.59;;
66747;Laerm;53658;50.742;10.864;2023-08-31T00:27:52;38.87;35.04;52.09;;
66747;Laerm;53658;50.742;10.864;2023-08-31T00:30:19;38.79;34.69;42.64;;
66747;Laerm;53658;50.742;10.864;2023-08-31T00:32:46;38.81;35.04;42.76;;
66747;Laerm;53658;50.742;10.864;2023-08-31T00:35:13;38.84;35.04;45.77;;
66747;Laerm;53658;50.742;10.864;2023-08-31T00:37:39;38.87;35.36;45.77;;
66747;Laerm;53658;50.742;10.864;2023-08-31T00:40:05;38.81;34.31;46.50;;
66747;Laerm;53658;50.742;10.864;2023-08-31T00:42:32;38.83;34.31;52.38;;
66747;Laerm;53658;50.742;10.864;2023-08-31T00:44:58;38.82;34.69;54.48;;
66747;Laerm;53658;50.742;10.864;2023-08-31T00:47:25;38.98;34.69;52.42;;
66747;Laerm;53658;50.742;10.864;2023-08-31T00:49:51;38.97;35.04;52.56;;
66747;Laerm;53658;50.742;10.864;2023-08-31T00:52:19;38.88;34.31;50.63;;
66747;Laerm;53658;50.742;10.864;2023-08-31T00:54:48;38.72;34.69;42.71;;
66747;Laerm;53658;50.742;10.864;2023-08-31T00:57:17;39.50;35.04;56.37;;
66747;Laerm;53658;50.742;10.864;2023-08-31T00:59:43;38.74;33.90;42.65;;
66747;Laerm;53658;50.742;10.864;2023-08-31T01:02:39;38.73;34.31;43.04;;
66747;Laerm;53658;50.742;10.864;2023-08-31T01:05:29;38.82;34.69;45.20;;
66747;Laerm;53658;50.742;10.864;2023-08-31T01:08:19;38.99;35.04;44.31;;
66747;Laerm;53658;50.742;10.864;2023-08-31T01:13:32;40.75;35.94;48.29;;
66747;Laerm;53658;50.742;10.864;2023-08-31T01:16:04;40.26;36.69;45.91;;
66747;Laerm;53658;50.742;10.864;2023-08-31T01:18:32;40.07;35.94;46.55;;
66747;Laerm;53658;50.742;10.864;2023-08-31T01:21:06;40.03;35.04;51.26;;
66747;Laerm;53658;50.742;10.864;2023-08-31T01:23:54;39.97;35.66;48.29;;
66747;Laerm;53658;50.742;10.864;2023-08-31T01:26:21;39.79;35.36;46.45;;
66747;Laerm;53658;50.742;10.864;2023-08-31T01:28:51;39.77;34.69;46.93;;
66747;Laerm;53658;50.742;10.864;2023-08-31T01:31:18;39.67;35.04;47.90;;
66747;Laerm;53658;50.742;10.864;2023-08-31T01:33:44;39.73;35.94;42.98;;
66747;Laerm;53658;50.742;10.864;2023-08-31T01:36:20;39.72;34.31;47.12;;
66747;Laerm;53658;50.742;10.864;2023-08-31T01:39:04;39.50;34.69;50.17;;
66747;Laerm;53658;50.742;10.864;2023-08-31T01:41:34;39.40;34.69;43.58;;
66747;Laerm;53658;50.742;10.864;2023-08-31T01:44:02;39.49;34.69;42.41;;
66747;Laerm;53658;50.742;10.864;2023-08-31T01:46:30;39.51;35.04;43.39;;
66747;Laerm;53658;50.742;10.864;2023-08-31T01:48:59;39.68;35.66;48.37;;
66747;Laerm;53658;50.742;10.864;2023-08-31T01:51:25;39.71;35.04;42.82;;
66747;Laerm;53658;50.742;10.864;2023-08-31T01:53:50;39.61;35.36;42.53;;
66747;Laerm;53658;50.742;10.864;2023-08-31T01:56:17;39.49;35.36;42.47;;
66747;Laerm;53658;50.742;10.864;2023-08-31T01:58:43;39.46;32.93;42.03;;
66747;Laerm;53658;50.742;10.864;2023-08-31T02:01:08;39.77;35.66;63.99;;
66747;Laerm;53658;50.742;10.864;2023-08-31T02:03:34;39.27;35.66;43.51;;
66747;Laerm;53658;50.742;10.864;2023-08-31T02:06:00;39.11;35.04;51.93;;
66747;Laerm;53658;50.742;10.864;2023-08-31T02:08:26;39.12;35.36;41.68;;
66747;Laerm;53658;50.742;10.864;2023-08-31T02:10:52;39.09;35.04;42.16;;
66747;Laerm;53658;50.742;10.864;2023-08-31T02:13:22;39.09;35.04;43.04;;
66747;Laerm;53658;50.742;10.864;2023-08-31T02:15:52;39.44;35.66;43.94;;
66747;Laerm;53658;50.742;10.864;2023-08-31T02:18:19;39.49;35.66;41.82;;
66747;Laerm;53658;50.742;10.864;2023-08-31T02:20:45;39.72;36.20;42.29;;
66747;Laerm;53658;50.742;10.864;2023-08-31T02:23:11;39.50;35.04;42.09;;
66747;Laerm;53658;50.742;10.864;2023-08-31T02:25:38;39.41;35.36;44.76;;
66747;Laerm;53658;50.742;10.864;2023-08-31T02:28:04;39.45;35.36;44.87;;
66747;Laerm;53658;50.742;10.864;2023-08-31T02:30:30;39.37;33.90;47.44;;
66747;Laerm;53658;50.742;10.864;2023-08-31T02:32:56;39.30;35.04;45.11;;
66747;Laerm;53658;50.742;10.864;2023-08-31T02:35:22;39.22;35.04;42.41;;
66747;Laerm;53658;50.742;10.864;2023-08-31T02:37:48;39.12;35.04;41.68;;
66747;Laerm;53658;50.742;10.864;2023-08-31T02:40:14;39.05;35.66;50.00;;
66747;Laerm;53658;50.742;10.864;2023-08-31T02:42:41;38.99;34.69;41.61;;
66747;Laerm;53658;50.742;10.864;2023-08-31T02:45:07;38.95;34.69;41.68;;
66747;Laerm;53658;50.742;10.864;2023-08-31T02:47:33;38.67;34.31;48.31;;
66747;Laerm;53658;50.742;10.864;2023-08-31T02:49:59;38.24;33.90;41.06;;
66747;Laerm;53658;50.742;10.864;2023-08-31T02:52:25;38.19;34.31;40.62;;
66747;Laerm;53658;50.742;10.864;2023-08-31T02:54:51;38.23;33.90;40.89;;
66747;Laerm;53658;50.742;10.864;2023-08-31T02:57:17;38.27;35.01;40.89;;
66747;Laerm;53658;50.742;10.864;2023-08-31T02:59:49;38.23;33.44;40.80;;
66747;Laerm;53658;50.742;10.864;2023-08-31T03:02:15;38.08;33.44;40.71;;
66747;Laerm;53658;50.742;10.864;2023-08-31T03:04:41;38.13;33.44;41.96;;
66747;Laerm;53658;50.742;10.864;2023-08-31T03:07:07;38.12;33.90;41.89;;
66747;Laerm;53658;50.742;10.864;2023-08-31T03:09:33;38.10;33.90;40.43;;
66747;Laerm;53658;50.742;10.864;2023-08-31T03:11:59;38.13;33.44;48.91;;
66747;Laerm;53658;50.742;10.864;2023-08-31T03:14:25;38.14;33.44;42.16;;
66747;Laerm;53658;50.742;10.864;2023-08-31T03:16:51;38.16;33.90;42.53;;
66747;Laerm;53658;50.742;10.864;2023-08-31T03:19:17;38.09;33.90;40.80;;
66747;Laerm;53658;50.742;10.864;2023-08-31T03:21:43;38.11;32.93;41.61;;
66747;Laerm;53658;50.742;10.864;2023-08-31T03:24:09;38.07;32.35;42.16;;
66747;Laerm;53658;50.742;10.864;2023-08-31T03:26:34;38.21;33.44;43.19;;
66747;Laerm;53658;50.742;10.864;2023-08-31T03:29:00;38.16;33.44;44.11;;
66747;Laerm;53658;50.742;10.864;2023-08-31T03:31:26;38.64;32.93;64.34;;
66747;Laerm;53658;50.742;10.864;2023-08-31T03:33:52;38.34;34.31;41.22;;
66747;Laerm;53658;50.742;10.864;2023-08-31T03:36:18;38.24;34.31;40.80;;
66747;Laerm;53658;50.742;10.864;2023-08-31T03:38:44;38.24;34.31;41.82;;
66747;Laerm;53658;50.742;10.864;2023-08-31T03:41:09;38.24;33.44;40.89;;
66747;Laerm;53658;50.742;10.864;2023-08-31T03:43:35;38.26;33.44;41.53;;
66747;Laerm;53658;50.742;10.864;2023-08-31T03:46:01;38.21;33.90;43.04;;
66747;Laerm;53658;50.742;10.864;2023-08-31T03:48:28;38.19;34.31;40.98;;
66747;Laerm;53658;50.742;10.864;2023-08-31T03:50:54;38.15;33.44;40.98;;
66747;Laerm;53658;50.742;10.864;2023-08-31T03:53:22;38.19;33.90;46.02;;
66747;Laerm;53658;50.742;10.864;2023-08-31T03:55:51;38.18;33.90;42.41;;
66747;Laerm;53658;50.742;10.864;2023-08-31T03:58:17;38.20;34.31;40.71;;
66747;Laerm;53658;50.742;10.864;2023-08-31T04:00:49;38.17;33.90;40.89;;
66747;Laerm;53658;50.742;10.864;2023-08-31T04:03:18;38.20;33.90;43.04;;
66747;Laerm;53658;50.742;10.864;2023-08-31T04:05:44;38.20;34.31;42.53;;
66747;Laerm;53658;50.742;10.864;2023-08-31T04:08:12;38.31;34.31;43.49;;
66747;Laerm;53658;50.742;10.864;2023-08-31T04:10:38;38.19;33.44;40.80;;
66747;Laerm;53658;50.742;10.864;2023-08-31T04:13:04;38.13;34.31;40.80;;
66747;Laerm;53658;50.742;10.864;2023-08-31T04:15:32;38.10;32.93;41.46;;
66747;Laerm;53658;50.742;10.864;2023-08-31T04:18:00;38.17;34.31;40.98;;
66747;Laerm;53658;50.742;10.864;2023-08-31T04:20:25;38.13;34.31;42.47;;
66747;Laerm;53658;50.742;10.864;2023-08-31T04:22:51;38.11;33.90;40.53;;
66747;Laerm;53658;50.742;10.864;2023-08-31T04:25:17;38.07;32.93;42.29;;
66747;Laerm;53658;50.742;10.864;2023-08-31T04:27:43;38.12;32.93;42.22;;
66747;Laerm;53658;50.742;10.864;2023-08-31T04:30:11;38.10;33.44;41.14;;
66747;Laerm;53658;50.742;10.864;2023-08-31T04:32:37;38.23;33.90;41.38;;
66747;Laerm;53658;50.742;10.864;2023-08-31T04:35:04;38.13;34.31;40.89;;
66747;Laerm;53658;50.742;10.864;2023-08-31T04:37:33;38.11;33.44;40.89;;
66747;Laerm;53658;50.742;10.864;2023-08-31T04:39:59;38.19;34.31;40.89;;
66747;Laerm;53658;50.742;10.864;2023-08-31T04:42:25;38.06;32.93;41.06;;
66747;Laerm;53658;50.742;10.864;2023-08-31T04:44:51;38.16;32.35;41.14;;
66747;Laerm;53658;50.742;10.864;2023-08-31T04:47:17;38.11;34.69;40.62;;
66747;Laerm;53658;50.742;10.864;2023-08-31T04:49:43;38.06;32.93;43.09;;
66747;Laerm;53658;50.742;10.864;2023-08-31T04:52:09;38.21;32.93;41.89;;
66747;Laerm;53658;50.742;10.864;2023-08-31T04:54:35;38.69;34.69;42.82;;
66747;Laerm;53658;50.742;10.864;2023-08-31T04:57:01;38.66;33.90;42.09;;
66747;Laerm;53658;50.742;10.864;2023-08-31T04:59:29;38.82;34.31;45.40;;
66747;Laerm;53658;50.742;10.864;2023-08-31T05:01:54;38.87;35.04;42.29;;
66747;Laerm;53658;50.742;10.864;2023-08-31T05:04:21;38.75;34.31;42.16;;
66747;Laerm;53658;50.742;10.864;2023-08-31T05:06:49;38.52;33.90;41.96;;
66747;Laerm;53658;50.742;10.864;2023-08-31T05:09:15;38.34;34.31;41.22;;
66747;Laerm;53658;50.742;10.864;2023-08-31T05:11:41;38.46;33.44;41.61;;
66747;Laerm;53658;50.742;10.864;2023-08-31T05:14:07;38.59;34.69;42.09;;
66747;Laerm;53658;50.742;10.864;2023-08-31T05:16:33;38.62;34.31;43.90;;
66747;Laerm;53658;50.742;10.864;2023-08-31T05:19:00;38.43;33.44;41.46;;
66747;Laerm;53658;50.742;10.864;2023-08-31T05:21:26;38.46;33.90;41.61;;
66747;Laerm;53658;50.742;10.864;2023-08-31T05:23:51;38.43;34.31;42.09;;
66747;Laerm;53658;50.742;10.864;2023-08-31T05:26:17;47.39;34.69;83.00;;
66747;Laerm;53658;50.742;10.864;2023-08-31T05:28:43;38.50;32.93;41.38;;
66747;Laerm;53658;50.742;10.864;2023-08-31T05:31:09;38.28;34.69;40.98;;
66747;Laerm;53658;50.742;10.864;2023-08-31T05:33:34;38.45;34.31;41.06;;
66747;Laerm;53658;50.742;10.864;2023-08-31T05:36:02;38.35;34.31;40.98;;
66747;Laerm;53658;50.742;10.864;2023-08-31T05:38:30;38.46;34.31;42.59;;
66747;Laerm;53658;50.742;10.864;2023-08-31T05:41:06;38.58;34.69;43.39;;
66747;Laerm;53658;50.742;10.864;2023-08-31T05:43:34;38.77;33.90;42.93;;
66747;Laerm;53658;50.742;10.864;2023-08-31T05:46:00;39.51;35.36;42.22;;
66747;Laerm;53658;50.742;10.864;2023-08-31T05:48:26;48.77;35.01;81.50;;
66747;Laerm;53658;50.742;10.864;2023-08-31T05:50:52;38.94;34.69;41.68;;
66747;Laerm;53658;50.742;10.864;2023-08-31T05:53:19;39.02;34.69;46.80;;
66747;Laerm;53658;50.742;10.864;2023-08-31T05:55:45;39.28;35.04;49.75;;
66747;Laerm;53658;50.742;10.864;2023-08-31T05:58:11;38.88;35.01;41.61;;
66747;Laerm;53658;50.742;10.864;2023-08-31T06:00:37;39.07;34.31;42.22;;
66747;Laerm;53658;50.742;10.864;2023-08-31T06:03:04;39.26;35.04;42.09;;
66747;Laerm;53658;50.742;10.864;2023-08-31T06:05:32;39.44;34.69;41.96;;
66747;Laerm;53658;50.742;10.864;2023-08-31T06:07:58;39.77;34.31;43.24;;
66747;Laerm;53658;50.742;10.864;2023-08-31T06:10:24;39.67;35.94;42.41;;
66747;Laerm;53658;50.742;10.864;2023-08-31T06:12:50;39.43;35.36;42.09;;
66747;Laerm;53658;50.742;10.864;2023-08-31T06:15:17;39.41;35.66;42.41;;
66747;Laerm;53658;50.742;10.864;2023-08-31T06:17:43;39.42;35.36;42.82;;
66747;Laerm;53658;50.742;10.864;2023-08-31T06:20:10;39.33;35.66;56.61;;
66747;Laerm;53658;50.742;10.864;2023-08-31T06:22:36;39.37;35.66;42.03;;
66747;Laerm;53658;50.742;10.864;2023-08-31T06:25:02;39.31;35.04;42.82;;
66747;Laerm;53658;50.742;10.864;2023-08-31T06:27:30;39.23;34.69;43.04;;
66747;Laerm;53658;50.742;10.864;2023-08-31T06:29:55;39.09;35.36;41.81;;
66747;Laerm;53658;50.742;10.864;2023-08-31T06:32:21;39.19;35.36;43.09;;
66747;Laerm;53658;50.742;10.864;2023-08-31T06:34:48;39.19;35.04;43.68;;
66747;Laerm;53658;50.742;10.864;2023-08-31T06:37:14;39.23;35.66;43.24;;
66747;Laerm;53658;50.742;10.864;2023-08-31T06:39:40;39.45;35.66;47.00;;
66747;Laerm;53658;50.742;10.864;2023-08-31T06:42:07;57.24;36.69;93.01;;
66747;Laerm;53658;50.742;10.864;2023-08-31T06:44:32;49.77;35.66;85.34;;
66747;Laerm;53658;50.742;10.864;2023-08-31T06:46:58;40.80;37.32;57.09;;
66747;Laerm;53658;50.742;10.864;2023-08-31T06:49:24;40.38;35.66;46.20;;
66747;Laerm;53658;50.742;10.864;2023-08-31T06:51:50;40.18;35.94;45.04;;
66747;Laerm;53658;50.742;10.864;2023-08-31T06:54:16;40.19;36.69;45.51;;
66747;Laerm;53658;50.742;10.864;2023-08-31T06:56:42;40.44;36.91;49.71;;
66747;Laerm;53658;50.742;10.864;2023-08-31T06:59:08;40.38;36.45;43.68;;
66747;Laerm;53658;50.742;10.864;2023-08-31T07:01:34;40.20;35.94;43.94;;
66747;Laerm;53658;50.742;10.864;2023-08-31T07:04:00;40.04;35.94;43.63;;
66747;Laerm;53658;50.742;10.864;2023-08-31T07:06:26;40.10;36.69;45.83;;
66747;Laerm;53658;50.742;10.864;2023-08-31T07:08:52;39.89;36.20;44.69;;
66747;Laerm;53658;50.742;10.864;2023-08-31T07:11:18;39.80;35.04;42.65;;
66747;Laerm;53658;50.742;10.864;2023-08-31T07:13:43;38.54;34.69;46.48;;
66747;Laerm;53658;50.742;10.864;2023-08-31T07:16:09;39.15;36.20;46.55;;
66747;Laerm;53658;50.742;10.864;2023-08-31T07:18:36;39.38;36.69;41.46;;
66747;Laerm;53658;50.742;10.864;2023-08-31T07:21:03;39.42;36.69;41.46;;
66747;Laerm;53658;50.742;10.864;2023-08-31T07:23:30;39.52;36.69;42.98;;
66747;Laerm;53658;50.742;10.864;2023-08-31T07:25:56;39.74;36.69;43.14;;
66747;Laerm;53658;50.742;10.864;2023-08-31T07:28:23;40.44;38.21;42.22;;
66747;Laerm;53658;50.742;10.864;2023-08-31T07:31:00;40.52;38.81;41.96;;
66747;Laerm;53658;50.742;10.864;2023-08-31T07:33:26;40.75;38.67;42.29;;
66747;Laerm;53658;50.742;10.864;2023-08-31T07:35:52;40.68;38.81;42.47;;
66747;Laerm;53658;50.742;10.864;2023-08-31T07:38:18;40.54;38.21;42.65;;
66747;Laerm;53658;50.742;10.864;2023-08-31T07:40:44;40.34;37.88;44.35;;
66747;Laerm;53658;50.742;10.864;2023-08-31T07:43:09;40.46;38.21;42.47;;
66747;Laerm;53658;50.742;10.864;2023-08-31T07:45:35;40.43;38.21;42.09;;
66747;Laerm;53658;50.742;10.864;2023-08-31T07:48:01;40.35;38.05;42.35;;
66747;Laerm;53658;50.742;10.864;2023-08-31T07:50:28;40.40;38.05;42.22;;
66747;Laerm;53658;50.742;10.864;2023-08-31T07:52:54;40.38;38.05;42.03;;
66747;Laerm;53658;50.742;10.864;2023-08-31T07:55:20;40.47;38.05;42.09;;
66747;Laerm;53658;50.742;10.864;2023-08-31T07:57:46;40.26;37.70;42.22;;
66747;Laerm;53658;50.742;10.864;2023-08-31T08:00:12;40.18;36.69;42.53;;
66747;Laerm;53658;50.742;10.864;2023-08-31T08:02:40;40.48;36.91;51.41;;
66747;Laerm;53658;50.742;10.864;2023-08-31T08:05:06;40.39;38.21;42.98;;
66747;Laerm;53658;50.742;10.864;2023-08-31T08:07:32;40.39;38.21;42.35;;
66747;Laerm;53658;50.742;10.864;2023-08-31T08:09:58;40.12;37.12;42.65;;
66747;Laerm;53658;50.742;10.864;2023-08-31T08:12:25;40.05;37.32;41.89;;
66747;Laerm;53658;50.742;10.864;2023-08-31T08:14:51;39.95;37.12;43.19;;
66747;Laerm;53658;50.742;10.864;2023-08-31T08:17:17;39.72;36.45;43.68;;
66747;Laerm;53658;50.742;10.864;2023-08-31T08:19:43;39.42;35.66;41.61;;
66747;Laerm;53658;50.742;10.864;2023-08-31T08:22:08;39.23;35.86;41.53;;
66747;Laerm;53658;50.742;10.864;2023-08-31T08:24:35;39.35;35.94;42.22;;
66747;Laerm;53658;50.742;10.864;2023-08-31T08:27:02;39.66;36.45;43.19;;
66747;Laerm;53658;50.742;10.864;2023-08-31T08:29:28;39.84;36.69;47.02;;
66747;Laerm;53658;50.742;10.864;2023-08-31T08:31:54;39.97;36.69;42.71;;
66747;Laerm;53658;50.742;10.864;2023-08-31T08:34:20;40.12;36.91;47.22;;
66747;Laerm;53658;50.742;10.864;2023-08-31T08:36:46;40.16;37.35;42.03;;
66747;Laerm;53658;50.742;10.864;2023-08-31T08:39:12;40.04;36.91;42.29;;
66747;Laerm;53658;50.742;10.864;2023-08-31T08:41:39;39.57;36.20;43.29;;
66747;Laerm;53658;50.742;10.864;2023-08-31T08:44:07;39.49;36.45;41.89;;
66747;Laerm;53658;50.742;10.864;2023-08-31T08:46:34;39.74;35.66;50.77;;
66747;Laerm;53658;50.742;10.864;2023-08-31T08:49:00;39.21;35.36;43.00;;
66747;Laerm;53658;50.742;10.864;2023-08-31T08:51:29;39.35;35.94;43.05;;
66747;Laerm;53658;50.742;10.864;2023-08-31T08:53:59;39.48;36.20;46.07;;
66747;Laerm;53658;50.742;10.864;2023-08-31T08:56:25;39.48;35.36;47.81;;
66747;Laerm;53658;50.742;10.864;2023-08-31T08:58:51;39.09;35.31;44.07;;
66747;Laerm;53658;50.742;10.864;2023-08-31T09:01:18;41.81;35.04;57.26;;
66747;Laerm;53658;50.742;10.864;2023-08-31T09:03:49;39.78;35.36;53.39;;
66747;Laerm;53658;50.742;10.864;2023-08-31T09:06:15;38.95;35.04;44.23;;
66747;Laerm;53658;50.742;10.864;2023-08-31T09:08:41;39.46;35.36;44.51;;
66747;Laerm;53658;50.742;10.864;2023-08-31T09:11:07;39.36;36.20;41.61;;
66747;Laerm;53658;50.742;10.864;2023-08-31T09:13:33;39.38;35.94;41.38;;
66747;Laerm;53658;50.742;10.864;2023-08-31T09:15:59;39.26;35.36;42.29;;
66747;Laerm;53658;50.742;10.864;2023-08-31T09:20:54;39.06;34.69;43.99;;
66747;Laerm;53658;50.742;10.864;2023-08-31T09:23:22;39.20;35.36;42.47;;
66747;Laerm;53658;50.742;10.864;2023-08-31T09:25:51;39.04;35.66;44.87;;
66747;Laerm;53658;50.742;10.864;2023-08-31T09:28:21;38.87;35.04;42.65;;
66747;Laerm;53658;50.742;10.864;2023-08-31T09:30:50;38.65;34.69;44.07;;
66747;Laerm;53658;50.742;10.864;2023-08-31T09:33:17;39.30;34.31;48.46;;
66747;Laerm;53658;50.742;10.864;2023-08-31T09:35:51;38.98;34.69;44.97;;
66747;Laerm;53658;50.742;10.864;2023-08-31T09:38:18;40.76;35.04;55.99;;
66747;Laerm;53658;50.742;10.864;2023-08-31T09:40:44;38.74;34.69;43.86;;
66747;Laerm;53658;50.742;10.864;2023-08-31T09:43:10;38.63;33.90;42.35;;
66747;Laerm;53658;50.742;10.864;2023-08-31T09:45:37;38.57;34.69;41.22;;
66747;Laerm;53658;50.742;10.864;2023-08-31T09:48:04;39.93;35.04;48.60;;
66747;Laerm;53658;50.742;10.864;2023-08-31T09:50:32;39.04;33.90;48.94;;
66747;Laerm;53658;50.742;10.864;2023-08-31T09:53:03;38.75;34.31;50.64;;
66747;Laerm;53658;50.742;10.864;2023-08-31T09:55:32;38.30;34.31;43.77;;
66747;Laerm;53658;50.742;10.864;2023-08-31T09:58:00;38.49;34.31;43.90;;
66747;Laerm;53658;50.742;10.864;2023-08-31T10:00:30;38.22;32.93;41.06;;
66747;Laerm;53658;50.742;10.864;2023-08-31T10:03:01;38.26;32.93;41.68;;
66747;Laerm;53658;50.742;10.864;2023-08-31T10:05:28;38.55;33.90;47.86;;
66747;Laerm;53658;50.742;10.864;2023-08-31T10:07:55;38.47;33.90;43.81;;
66747;Laerm;53658;50.742;10.864;2023-08-31T10:10:21;38.42;34.31;41.89;;
66747;Laerm;53658;50.742;10.864;2023-08-31T10:12:49;39.75;35.04;46.82;;
66747;Laerm;53658;50.742;10.864;2023-08-31T10:15:16;39.80;37.12;41.75;;
66747;Laerm;53658;50.742;10.864;2023-08-31T10:17:43;40.00;36.91;48.19;;
66747;Laerm;53658;50.742;10.864;2023-08-31T10:20:12;41.65;35.66;58.33;;
66747;Laerm;53658;50.742;10.864;2023-08-31T10:22:39;39.15;35.94;44.15;;
66747;Laerm;53658;50.742;10.864;2023-08-31T10:25:06;38.96;34.31;41.89;;
66747;Laerm;53658;50.742;10.864;2023-08-31T10:27:40;39.00;35.04;44.07;;
66747;Laerm;53658;50.742;10.864;2023-08-31T10:35:50;38.77;34.31;49.36;;
66747;Laerm;53658;50.742;10.864;2023-08-31T10:38:23;38.58;34.31;43.54;;
66747;Laerm;53658;50.742;10.864;2023-08-31T10:43:47;38.25;33.44;42.03;;
66747;Laerm;53658;50.742;10.864;2023-08-31T10:46:31;40.30;33.90;56.96;;
66747;Laerm;53658;50.742;10.864;2023-08-31T10:51:37;38.85;34.31;46.23;;
66747;Laerm;53658;50.742;10.864;2023-08-31T10:54:23;39.01;33.44;48.03;;
66747;Laerm;53658;50.742;10.864;2023-08-31T10:57:02;39.29;33.44;61.72;;
66747;Laerm;53658;50.742;10.864;2023-08-31T11:02:08;38.50;34.31;42.82;;
66747;Laerm;53658;50.742;10.864;2023-08-31T11:04:54;38.65;34.31;44.52;;
66747;Laerm;53658;50.742;10.864;2023-08-31T11:07:25;38.50;34.69;42.41;;
66747;Laerm;53658;50.742;10.864;2023-08-31T11:09:52;38.87;34.31;44.43;;
66747;Laerm;53658;50.742;10.864;2023-08-31T11:12:22;38.28;33.90;42.16;;
66747;Laerm;53658;50.742;10.864;2023-08-31T11:14:48;38.46;34.31;43.44;;
66747;Laerm;53658;50.742;10.864;2023-08-31T11:17:14;38.28;33.90;41.53;;
66747;Laerm;53658;50.742;10.864;2023-08-31T11:19:41;39.36;34.69;43.24;;
66747;Laerm;53658;50.742;10.864;2023-08-31T11:22:07;39.21;32.93;43.24;;
66747;Laerm;53658;50.742;10.864;2023-08-31T11:24:35;39.73;34.69;43.14;;
66747;Laerm;53658;50.742;10.864;2023-08-31T11:27:01;39.97;34.31;55.56;;
66747;Laerm;53658;50.742;10.864;2023-08-31T11:29:29;41.02;35.94;56.88;;
66747;Laerm;53658;50.742;10.864;2023-08-31T11:31:58;41.05;35.36;45.48;;
66747;Laerm;53658;50.742;10.864;2023-08-31T11:34:25;40.73;35.36;45.42;;
66747;Laerm;53658;50.742;10.864;2023-08-31T11:36:53;38.94;34.31;42.42;;
66747;Laerm;53658;50.742;10.864;2023-08-31T11:39:19;41.70;34.31;54.97;;
66747;Laerm;53658;50.742;10.864;2023-08-31T11:41:45;41.75;37.12;56.62;;
66747;Laerm;53658;50.742;10.864;2023-08-31T11:44:13;41.41;36.20;49.59;;
66747;Laerm;53658;50.742;10.864;2023-08-31T11:46:44;40.75;35.66;49.34;;
66747;Laerm;53658;50.742;10.864;2023-08-31T11:49:11;39.84;34.31;44.51;;
66747;Laerm;53658;50.742;10.864;2023-08-31T11:51:40;39.91;35.36;43.77;;
66747;Laerm;53658;50.742;10.864;2023-08-31T11:54:07;41.27;35.66;46.28;;
66747;Laerm;53658;50.742;10.864;2023-08-31T11:59:10;40.27;34.69;51.36;;
66747;Laerm;53658;50.742;10.864;2023-08-31T12:01:38;39.11;33.90;50.11;;
66747;Laerm;53658;50.742;10.864;2023-08-31T12:04:12;38.46;35.04;41.75;;
66747;Laerm;53658;50.742;10.864;2023-08-31T12:06:39;38.50;33.90;42.22;;
66747;Laerm;53658;50.742;10.864;2023-08-31T12:09:07;38.80;34.69;44.03;;
66747;Laerm;53658;50.742;10.864;2023-08-31T12:11:33;39.26;34.31;52.64;;
66747;Laerm;53658;50.742;10.864;2023-08-31T12:14:00;38.54;33.90;42.88;;
66747;Laerm;53658;50.742;10.864;2023-08-31T12:16:34;38.79;34.31;49.02;;
66747;Laerm;53658;50.742;10.864;2023-08-31T12:19:03;38.67;33.97;44.47;;
66747;Laerm;53658;50.742;10.864;2023-08-31T12:21:31;38.49;34.31;44.31;;
66747;Laerm;53658;50.742;10.864;2023-08-31T12:23:58;38.43;33.44;44.31;;
66747;Laerm;53658;50.742;10.864;2023-08-31T12:26:25;38.73;34.31;44.94;;
66747;Laerm;53658;50.742;10.864;2023-08-31T12:28:51;39.25;34.31;50.08;;
66747;Laerm;53658;50.742;10.864;2023-08-31T12:31:17;39.65;33.90;51.78;;
66747;Laerm;53658;50.742;10.864;2023-08-31T12:33:43;38.40;33.44;43.90;;
66747;Laerm;53658;50.742;10.864;2023-08-31T12:36:09;38.93;33.90;46.73;;
66747;Laerm;53658;50.742;10.864;2023-08-31T12:38:35;38.47;32.93;45.01;;
66747;Laerm;53658;50.742;10.864;2023-08-31T12:41:01;38.72;34.31;47.36;;
66747;Laerm;53658;50.742;10.864;2023-08-31T12:43:28;38.83;34.31;50.84;;
66747;Laerm;53658;50.742;10.864;2023-08-31T12:45:57;38.49;33.90;43.09;;
66747;Laerm;53658;50.742;10.864;2023-08-31T12:48:24;44.29;32.93;65.91;;
66747;Laerm;53658;50.742;10.864;2023-08-31T12:50:49;38.37;33.44;45.45;;
66747;Laerm;53658;50.742;10.864;2023-08-31T12:53:15;38.73;34.31;52.76;;
66747;Laerm;53658;50.742;10.864;2023-08-31T12:55:42;40.64;34.31;59.81;;
66747;Laerm;53658;50.742;10.864;2023-08-31T12:58:08;39.01;32.35;51.07;;
66747;Laerm;53658;50.742;10.864;2023-08-31T13:00:34;39.22;33.90;55.24;;
66747;Laerm;53658;50.742;10.864;2023-08-31T13:03:00;40.26;33.90;52.30;;
66747;Laerm;53658;50.742;10.864;2023-08-31T13:05:29;39.40;32.93;49.94;;
66747;Laerm;53658;50.742;10.864;2023-08-31T13:07:55;39.43;32.35;50.67;;
66747;Laerm;53658;50.742;10.864;2023-08-31T13:10:21;38.07;33.44;40.89;;
66747;Laerm;53658;50.742;10.864;2023-08-31T13:12:47;38.31;32.93;44.47;;
66747;Laerm;53658;50.742;10.864;2023-08-31T13:15:13;39.16;32.93;55.96;;
66747;Laerm;53658;50.742;10.864;2023-08-31T13:17:40;38.63;33.44;45.60;;
66747;Laerm;53658;50.742;10.864;2023-08-31T13:20:06;38.27;33.90;42.71;;
66747;Laerm;53658;50.742;10.864;2023-08-31T13:22:34;38.29;32.93;42.41;;
66747;Laerm;53658;50.742;10.864;2023-08-31T13:25:00;39.31;33.90;56.82;;
66747;Laerm;53658;50.742;10.864;2023-08-31T13:27:26;40.68;33.44;58.65;;
66747;Laerm;53658;50.742;10.864;2023-08-31T13:29:52;38.41;33.44;44.23;;
66747;Laerm;53658;50.742;10.864;2023-08-31T13:32:18;38.81;33.90;46.52;;
66747;Laerm;53658;50.742;10.864;2023-08-31T13:34:44;38.63;33.44;44.51;;
66747;Laerm;53658;50.742;10.864;2023-08-31T13:37:10;38.21;31.68;45.48;;
66747;Laerm;53658;50.742;10.864;2023-08-31T13:39:37;38.27;33.90;44.65;;
66747;Laerm;53658;50.742;10.864;2023-08-31T13:42:03;38.26;33.44;43.90;;
66747;Laerm;53658;50.742;10.864;2023-08-31T13:44:30;39.02;33.90;45.69;;
66747;Laerm;53658;50.742;10.864;2023-08-31T13:46:56;38.44;33.90;43.90;;
66747;Laerm;53658;50.742;10.864;2023-08-31T13:49:22;39.36;34.31;50.06;;
66747;Laerm;53658;50.742;10.864;2023-08-31T13:51:48;38.49;33.90;44.62;;
66747;Laerm;53658;50.742;10.864;2023-08-31T13:54:14;38.73;32.93;45.45;;